Time;durP1;ratioP1;P1;durP2;ratioP2;P2;SDS_P1;SDS_P2;PMS_P1;PMS_P2;Temp;Humidity;BMP_temperature;BMP_pressure;BME280_temperature;BME280_humidity;BME280_pressure;Samples;Min_cycle;Max_cycle;Signal;HPM_P1;HPM_P2
2022/07/03 00:02:21;;;;;;;;;5.00;5.00;;;;;;;;5019742;28;11270;-75
2022/07/03 00:04:46;;;;;;;;;4.67;4.67;;;;;;;;5019834;28;9485;-75
2022/07/03 00:07:11;;;;;;;;;6.33;6.00;;;;;;;;5018586;28;12739;-75
2022/07/03 00:09:37;;;;;;;;;8.00;8.00;;;;;;;;5020100;28;11349;-75
2022/07/03 00:12:02;;;;;;;;;7.00;7.00;;;;;;;;5020051;28;10247;-74
2022/07/03 00:14:28;;;;;;;;;9.67;9.67;;;;;;;;5019801;28;9614;-74
2022/07/03 00:16:53;;;;;;;;;3.33;1.00;;;;;;;;5020322;28;12732;-75
2022/07/03 00:19:18;;;;;;;;;8.00;8.00;;;;;;;;5020234;28;12451;-74
2022/07/03 00:21:46;;;;;;;;;9.33;7.00;;;;;;;;5018873;28;10707;-75
2022/07/03 00:24:24;;;;;;;;;6.00;6.00;;;;;;;;5019789;28;10339;-74
2022/07/03 00:26:50;;;;;;;;;6.33;5.33;;;;;;;;5018664;28;10718;-74
2022/07/03 00:29:17;;;;;;;;;5.33;5.00;;;;;;;;5020193;28;10259;-74
2022/07/03 00:31:42;;;;;;;;;6.75;6.75;;;;;;;;5018490;28;11577;-74
2022/07/03 00:34:08;;;;;;;;;8.00;5.00;;;;;;;;5018125;28;11725;-75
2022/07/03 00:36:37;;;;;;;;;6.50;5.50;;;;;;;;5020173;28;11885;-74
2022/07/03 00:39:03;;;;;;;;;6.00;6.00;;;;;;;;5019692;28;11372;-75
2022/07/03 00:41:30;;;;;;;;;6.00;6.00;;;;;;;;5020490;28;10405;-75
2022/07/03 00:43:55;;;;;;;;;7.25;6.00;;;;;;;;5019735;28;8924;-76
2022/07/03 00:46:22;;;;;;;;;8.00;5.00;;;;;;;;5019493;28;8932;-76
2022/07/03 00:48:48;;;;;;;;;5.00;5.00;;;;;;;;5019186;28;10694;-76
2022/07/03 00:51:15;;;;;;;;;5.67;4.67;;;;;;;;5020279;28;8852;-76
2022/07/03 00:53:41;;;;;;;;;4.33;4.33;;;;;;;;5019460;28;10590;-75
2022/07/03 00:56:09;;;;;;;;;4.00;4.00;;;;;;;;5019392;28;11388;-74
2022/07/03 00:58:35;;;;;;;;;6.00;4.00;;;;;;;;5019977;28;8896;-75
2022/07/03 01:01:00;;;;;;;;;5.67;5.00;;;;;;;;5019846;28;8928;-75
2022/07/03 01:03:27;;;;;;;;;5.00;3.67;;;;;;;;5018216;28;10788;-74
2022/07/03 01:05:53;;;;;;;;;6.00;4.33;;;;;;;;5019280;28;10399;-73
2022/07/03 01:08:18;;;;;;;;;4.00;4.00;;;;;;;;5019855;28;11765;-73
2022/07/03 01:10:52;;;;;;;;;5.33;4.00;;;;;;;;5019809;28;12411;-74
2022/07/03 01:13:27;;;;;;;;;4.00;4.00;;;;;;;;5018985;28;10279;-75
2022/07/03 01:16:04;;;;;;;;;5.00;4.00;;;;;;;;5017480;28;9927;-75
2022/07/03 01:18:35;;;;;;;;;6.33;6.00;;;;;;;;5019895;28;9321;-73
2022/07/03 01:21:08;;;;;;;;;4.00;4.00;;;;;;;;5019208;28;10722;-74
2022/07/03 01:23:43;;;;;;;;;6.00;6.00;;;;;;;;5019753;28;10369;-74
2022/07/03 01:26:10;;;;;;;;;6.00;5.33;;;;;;;;5019171;28;9263;-73
2022/07/03 01:28:39;;;;;;;;;5.33;5.00;;;;;;;;5018853;28;10067;-75
2022/07/03 01:31:06;;;;;;;;;5.00;5.00;;;;;;;;5019132;28;11390;-77
2022/07/03 01:33:33;;;;;;;;;7.67;6.67;;;;;;;;5019402;28;9053;-76
2022/07/03 01:36:05;;;;;;;;;6.00;6.00;;;;;;;;5018045;28;12062;-74
2022/07/03 01:38:31;;;;;;;;;7.00;6.00;;;;;;;;5019240;28;11383;-74
2022/07/03 01:40:57;;;;;;;;;5.67;5.67;;;;;;;;5018772;28;9112;-74
2022/07/03 01:43:27;;;;;;;;;8.00;6.33;;;;;;;;5018464;28;12023;-75
2022/07/03 01:45:53;;;;;;;;;7.00;6.00;;;;;;;;5018554;28;12239;-74
2022/07/03 01:48:19;;;;;;;;;9.67;6.00;;;;;;;;5019483;28;11576;-74
2022/07/03 01:50:46;;;;;;;;;6.00;4.33;;;;;;;;5019044;28;9246;-74
2022/07/03 01:53:11;;;;;;;;;8.33;8.00;;;;;;;;5019102;28;11451;-75
2022/07/03 01:55:41;;;;;;;;;9.33;8.33;;;;;;;;5018339;28;11299;-74
2022/07/03 01:58:07;;;;;;;;;9.67;7.67;;;;;;;;5018741;28;11365;-74
2022/07/03 02:00:39;;;;;;;;;6.67;6.00;;;;;;;;5018508;28;11113;-76
2022/07/03 02:03:06;;;;;;;;;8.00;7.00;;;;;;;;5018843;28;11387;-77
2022/07/03 02:05:31;;;;;;;;;7.00;6.67;;;;;;;;5018464;28;10339;-77
2022/07/03 02:08:08;;;;;;;;;6.33;5.33;;;;;;;;5018406;28;12427;-76
2022/07/03 02:10:38;;;;;;;;;7.00;6.33;;;;;;;;5019035;28;11869;-76
2022/07/03 02:13:15;;;;;;;;;5.00;5.00;;;;;;;;5019148;28;10335;-75
2022/07/03 02:15:42;;;;;;;;;7.33;6.00;;;;;;;;5018582;28;11603;-75
2022/07/03 02:18:16;;;;;;;;;8.67;7.00;;;;;;;;5019259;28;10538;-75
2022/07/03 02:20:45;;;;;;;;;8.00;6.00;;;;;;;;5018633;28;10375;-76
2022/07/03 02:23:11;;;;;;;;;7.67;5.67;;;;;;;;5018862;28;10097;-74
2022/07/03 02:25:37;;;;;;;;;7.00;7.00;;;;;;;;5018538;28;11791;-73
2022/07/03 02:28:17;;;;;;;;;6.33;5.00;;;;;;;;5018479;28;10582;-74
2022/07/03 02:30:43;;;;;;;;;5.00;5.00;;;;;;;;5018064;28;10553;-73
2022/07/03 02:33:10;;;;;;;;;6.00;5.00;;;;;;;;5018876;28;9330;-73
2022/07/03 02:35:35;;;;;;;;;7.00;6.00;;;;;;;;5018603;28;9246;-74
2022/07/03 02:38:15;;;;;;;;;6.33;6.33;;;;;;;;5018446;28;9145;-74
2022/07/03 02:40:44;;;;;;;;;8.00;8.00;;;;;;;;5018387;28;11366;-74
2022/07/03 02:43:16;;;;;;;;;6.00;6.00;;;;;;;;5018458;28;12652;-74
2022/07/03 02:49:02;;;;;;;;;7.00;6.00;;;;;;;;4957245;28;9491;-74
2022/07/03 02:51:32;;;;;;;;;7.33;4.67;;;;;;;;4957048;28;9206;-73
2022/07/03 02:54:01;;;;;;;;;5.33;5.00;;;;;;;;4958224;28;10648;-74
2022/07/03 02:56:50;;;;;;;;;6.00;5.00;;;;;;;;4960165;28;11720;-74
2022/07/03 02:59:15;;;;;;;;;6.00;6.00;;;;;;;;4982000;28;10539;-73
2022/07/03 03:01:49;;;;;;;;;7.33;6.00;;;;;;;;5021932;28;9293;-74
2022/07/03 03:04:26;;;;;;;;;7.00;5.00;;;;;;;;5021060;28;10370;-74
2022/07/03 03:06:57;;;;;;;;;8.00;6.67;;;;;;;;5021314;28;10663;-74
2022/07/03 03:09:27;;;;;;;;;6.00;6.00;;;;;;;;5021844;28;11457;-74
2022/07/03 03:11:56;;;;;;;;;6.33;6.33;;;;;;;;5021845;28;11382;-74
2022/07/03 03:14:26;;;;;;;;;8.00;7.00;;;;;;;;5020879;28;9294;-73
2022/07/03 03:16:53;;;;;;;;;5.67;5.00;;;;;;;;5019014;28;13766;-74
2022/07/03 03:19:20;;;;;;;;;4.00;4.00;;;;;;;;5021362;28;10344;-74
2022/07/03 03:22:07;;;;;;;;;6.00;6.00;;;;;;;;5020896;28;10385;-74
2022/07/03 03:24:33;;;;;;;;;6.00;6.00;;;;;;;;5021132;28;9266;-74
2022/07/03 03:26:59;;;;;;;;;7.25;6.00;;;;;;;;5021523;28;10272;-74
2022/07/03 03:29:24;;;;;;;;;6.75;6.25;;;;;;;;5021258;28;9596;-73
2022/07/03 03:31:50;;;;;;;;;6.00;5.00;;;;;;;;5021018;28;11303;-73
2022/07/03 03:34:15;;;;;;;;;5.00;5.00;;;;;;;;5020979;28;10779;-73
2022/07/03 03:36:41;;;;;;;;;5.67;5.00;;;;;;;;5020752;28;8848;-73
2022/07/03 03:39:06;;;;;;;;;7.00;7.00;;;;;;;;5019342;28;9510;-73
2022/07/03 03:41:32;;;;;;;;;7.00;7.00;;;;;;;;5020786;28;10251;-74
2022/07/03 03:43:58;;;;;;;;;5.00;5.00;;;;;;;;5021512;28;8978;-73
2022/07/03 03:46:23;;;;;;;;;7.00;7.00;;;;;;;;5020759;28;9596;-73
2022/07/03 03:48:48;;;;;;;;;7.00;7.00;;;;;;;;5021131;28;8817;-73
2022/07/03 03:51:14;;;;;;;;;6.67;6.00;;;;;;;;5021137;28;8794;-73
2022/07/03 03:53:39;;;;;;;;;5.67;5.67;;;;;;;;5020939;28;10518;-75
2022/07/03 03:56:06;;;;;;;;;7.33;6.00;;;;;;;;5020367;28;11289;-73
2022/07/03 03:58:33;;;;;;;;;7.67;7.00;;;;;;;;5020864;28;12809;-74
2022/07/03 04:01:00;;;;;;;;;7.33;6.67;;;;;;;;5021074;28;9536;-74
2022/07/03 04:03:25;;;;;;;;;6.00;6.00;;;;;;;;5019977;28;10404;-75
2022/07/03 04:05:51;;;;;;;;;7.67;7.00;;;;;;;;5019771;28;11590;-74
2022/07/03 04:08:16;;;;;;;;;7.67;7.67;;;;;;;;5020792;28;10219;-74
2022/07/03 04:10:41;;;;;;;;;6.25;5.00;;;;;;;;5021035;28;8829;-75
2022/07/03 04:13:07;;;;;;;;;5.00;5.00;;;;;;;;5020841;28;11795;-75
2022/07/03 04:15:32;;;;;;;;;7.33;6.00;;;;;;;;5020311;28;8951;-74
2022/07/03 04:17:57;;;;;;;;;8.25;7.00;;;;;;;;5020751;28;10486;-74
2022/07/03 04:20:23;;;;;;;;;7.00;7.00;;;;;;;;5020372;28;9518;-74
2022/07/03 04:22:50;;;;;;;;;6.00;6.00;;;;;;;;5020623;28;9012;-75
2022/07/03 04:25:15;;;;;;;;;7.00;7.00;;;;;;;;5020042;28;8774;-73
2022/07/03 04:27:41;;;;;;;;;6.00;5.00;;;;;;;;5019892;28;9957;-73
2022/07/03 04:30:10;;;;;;;;;8.33;6.00;;;;;;;;5018888;28;10295;-74
2022/07/03 04:32:35;;;;;;;;;6.67;5.67;;;;;;;;5019883;28;10348;-75
2022/07/03 04:35:01;;;;;;;;;7.00;7.00;;;;;;;;5020021;28;11566;-75
2022/07/03 04:37:26;;;;;;;;;7.33;6.33;;;;;;;;5020117;28;11282;-74
2022/07/03 04:39:51;;;;;;;;;6.00;5.00;;;;;;;;5020714;28;10275;-74
2022/07/03 04:42:16;;;;;;;;;7.00;6.33;;;;;;;;5020147;28;11932;-74
2022/07/03 04:44:42;;;;;;;;;8.00;7.33;;;;;;;;5019894;28;11689;-75
2022/07/03 04:47:07;;;;;;;;;8.33;6.67;;;;;;;;5020304;28;8805;-75
2022/07/03 04:49:32;;;;;;;;;9.00;8.00;;;;;;;;5020095;28;10435;-76
2022/07/03 04:51:57;;;;;;;;;7.00;7.00;;;;;;;;5020097;28;11272;-75
2022/07/03 04:54:23;;;;;;;;;8.00;8.00;;;;;;;;5019905;28;9491;-72
2022/07/03 04:56:48;;;;;;;;;10.00;7.67;;;;;;;;5019751;28;8980;-73
2022/07/03 04:59:13;;;;;;;;;6.67;6.33;;;;;;;;5019056;28;21482;-74
2022/07/03 05:01:39;;;;;;;;;7.67;5.00;;;;;;;;5019327;28;22390;-73
2022/07/03 05:04:04;;;;;;;;;6.33;5.33;;;;;;;;5019254;28;11439;-74
2022/07/03 05:06:29;;;;;;;;;9.33;7.00;;;;;;;;5019336;28;11400;-74
2022/07/03 05:08:55;;;;;;;;;7.00;7.00;;;;;;;;5026764;28;11476;-75
2022/07/03 05:11:20;;;;;;;;;8.00;7.00;;;;;;;;5031360;28;9090;-74
